createdAt,value
2018-03-24T00:00:07.458Z,2.26
2018-03-24T00:02:35.013Z,2.30
2018-03-24T00:05:02.479Z,2.34
2018-03-24T00:07:29.965Z,2.38
2018-03-24T00:09:57.435Z,2.41
2018-03-24T00:12:24.918Z,2.37
2018-03-24T00:14:52.411Z,2.35
2018-03-24T00:17:19.866Z,2.31
2018-03-24T00:19:47.319Z,2.30
2018-03-24T00:22:14.820Z,2.32
2018-03-24T00:24:42.275Z,2.27
2018-03-24T00:27:09.739Z,2.33
2018-03-24T00:29:37.271Z,2.30
2018-03-24T00:32:04.743Z,2.38
2018-03-24T00:34:32.300Z,2.27
2018-03-24T00:36:59.806Z,2.26
2018-03-24T00:39:27.278Z,2.28
2018-03-24T00:41:54.870Z,2.23
2018-03-24T00:44:22.346Z,2.22
2018-03-24T00:46:49.806Z,2.15
2018-03-24T00:49:17.342Z,2.18
2018-03-24T00:51:44.802Z,2.22
2018-03-24T00:54:12.259Z,2.19
2018-03-24T00:56:39.757Z,2.18
2018-03-24T00:59:07.283Z,2.29
2018-03-24T01:01:34.842Z,2.34
2018-03-24T01:04:02.336Z,2.33
2018-03-24T01:06:29.894Z,2.37
2018-03-24T01:08:57.362Z,2.35
2018-03-24T01:11:24.867Z,2.32
2018-03-24T01:13:52.336Z,2.30
2018-03-24T01:16:19.791Z,2.33
2018-03-24T01:18:47.289Z,2.33
2018-03-24T01:21:14.751Z,2.34
2018-03-24T01:23:42.220Z,2.35
2018-03-24T01:26:09.686Z,2.32
2018-03-24T01:28:37.172Z,2.26
2018-03-24T01:31:04.631Z,2.27
2018-03-24T01:33:32.224Z,2.20
2018-03-24T01:35:59.726Z,2.12
2018-03-24T01:38:27.183Z,2.06
2018-03-24T01:40:54.665Z,2.08
2018-03-24T01:43:22.164Z,2.18
2018-03-24T01:45:49.746Z,2.11
2018-03-24T01:48:17.186Z,2.15
2018-03-24T01:50:44.649Z,2.11
2018-03-24T01:53:12.103Z,2.08
2018-03-24T01:55:39.612Z,2.14
2018-03-24T01:58:07.072Z,2.30
2018-03-24T02:00:34.526Z,2.29
2018-03-24T02:03:02.002Z,2.27
2018-03-24T02:05:29.458Z,2.26
2018-03-24T02:07:56.937Z,2.23
2018-03-24T02:10:24.446Z,2.26
2018-03-24T02:12:51.900Z,2.21
2018-03-24T02:15:19.347Z,2.20
2018-03-24T02:17:46.826Z,2.16
2018-03-24T02:20:14.630Z,2.14
2018-03-24T02:22:42.119Z,2.07
2018-03-24T02:25:09.613Z,2.06
2018-03-24T02:27:37.070Z,2.09
2018-03-24T02:30:04.552Z,2.11
2018-03-24T02:32:32.164Z,2.13
2018-03-24T02:34:59.660Z,2.20
2018-03-24T02:37:27.120Z,2.23
2018-03-24T02:39:54.611Z,2.26
2018-03-24T02:42:22.113Z,2.26
2018-03-24T02:44:49.622Z,2.28
2018-03-24T02:47:17.086Z,2.36
2018-03-24T02:49:44.542Z,2.35
2018-03-24T02:52:12.018Z,2.31
2018-03-24T02:54:39.515Z,2.26
2018-03-24T02:57:06.972Z,2.22
2018-03-24T02:59:34.430Z,2.24
2018-03-24T03:02:01.909Z,2.21
2018-03-24T03:04:29.482Z,2.22
2018-03-24T03:06:56.942Z,2.20
2018-03-24T03:09:24.406Z,2.22
2018-03-24T03:11:51.898Z,2.23
2018-03-24T03:14:19.349Z,2.22
2018-03-24T03:16:46.887Z,2.24
2018-03-24T03:19:14.346Z,2.29
2018-03-24T03:21:51.604Z,2.27
2018-03-24T03:24:19.080Z,2.24
2018-03-24T03:26:46.555Z,2.19
2018-03-24T03:29:14.072Z,2.21
2018-03-24T03:31:41.535Z,2.26
2018-03-24T03:34:08.997Z,2.31
2018-03-24T03:36:36.480Z,2.22
2018-03-24T03:39:03.936Z,2.19
2018-03-24T03:41:31.426Z,2.18
2018-03-24T03:43:58.885Z,2.22
2018-03-24T03:46:26.330Z,2.24
2018-03-24T03:48:53.813Z,2.21
2018-03-24T03:51:21.275Z,2.16
2018-03-24T03:53:48.834Z,2.18
2018-03-24T03:56:16.339Z,2.16
2018-03-24T03:58:43.822Z,2.16
2018-03-24T04:01:11.318Z,2.15
2018-03-24T04:03:38.867Z,2.14
2018-03-24T04:06:06.322Z,2.17
2018-03-24T04:08:33.795Z,2.16
2018-03-24T04:11:01.248Z,2.16
2018-03-24T04:13:28.705Z,2.19
2018-03-24T04:15:56.182Z,2.24
2018-03-24T04:18:23.658Z,2.22
2018-03-24T04:20:51.116Z,2.15
2018-03-24T04:23:18.613Z,2.12
2018-03-24T04:25:46.075Z,2.15
2018-03-24T04:28:13.541Z,2.18
2018-03-24T04:30:41.014Z,2.18
2018-03-24T04:33:08.462Z,2.16
2018-03-24T04:35:35.941Z,2.17
2018-03-24T04:38:03.410Z,2.20
2018-03-24T04:40:30.874Z,2.26
2018-03-24T04:42:58.434Z,2.29
2018-03-24T04:45:26.001Z,2.34
2018-03-24T04:47:53.461Z,2.31
2018-03-24T04:50:20.949Z,2.23
2018-03-24T04:52:48.413Z,2.22
2018-03-24T04:55:15.905Z,2.27
2018-03-24T04:57:43.370Z,2.32
2018-03-24T05:00:10.923Z,2.32
2018-03-24T05:02:38.390Z,2.29
2018-03-24T05:05:05.996Z,2.28
2018-03-24T05:07:33.490Z,2.28
2018-03-24T05:10:00.938Z,2.24
2018-03-24T05:12:28.414Z,2.26
2018-03-24T05:14:55.871Z,2.25
2018-03-24T05:17:23.328Z,2.26
2018-03-24T05:19:50.903Z,2.19
2018-03-24T05:22:18.358Z,2.16
2018-03-24T05:24:45.832Z,2.12
2018-03-24T05:27:13.287Z,2.08
2018-03-24T05:29:40.765Z,2.07
2018-03-24T05:32:08.236Z,2.12
2018-03-24T05:34:35.694Z,2.15
2018-03-24T05:37:03.166Z,2.18
2018-03-24T05:39:30.642Z,2.22
2018-03-24T05:41:58.158Z,2.21
2018-03-24T05:44:25.627Z,2.19
2018-03-24T05:46:53.106Z,2.18
2018-03-24T05:49:20.564Z,2.18
2018-03-24T05:51:48.084Z,2.03
2018-03-24T05:54:15.654Z,2.01
2018-03-24T05:56:43.147Z,2.01
2018-03-24T05:59:10.641Z,1.96
2018-03-24T06:01:38.119Z,2.04
2018-03-24T06:04:05.612Z,1.99
2018-03-24T06:06:33.137Z,1.98
2018-03-24T06:09:00.939Z,2.13
2018-03-24T06:11:28.403Z,2.16
2018-03-24T06:13:55.874Z,2.21
2018-03-24T06:16:23.360Z,2.20
2018-03-24T06:18:50.824Z,2.21
2018-03-24T06:21:18.287Z,2.33
2018-03-24T06:23:45.756Z,2.32
2018-03-24T06:26:13.234Z,2.28
2018-03-24T06:28:40.716Z,2.27
2018-03-24T06:34:09.566Z,2.34
2018-03-24T06:36:37.354Z,2.35
2018-03-24T06:39:04.815Z,2.37
2018-03-24T06:41:32.354Z,2.33
2018-03-24T06:43:59.924Z,2.38
2018-03-24T06:46:27.420Z,2.36
2018-03-24T06:48:54.960Z,2.38
2018-03-24T06:51:22.487Z,2.48
2018-03-24T06:53:49.952Z,2.62
2018-03-24T06:56:17.421Z,2.74
2018-03-24T06:58:44.901Z,2.83
2018-03-24T07:01:12.356Z,2.99
2018-03-24T07:03:39.823Z,3.13
2018-03-24T07:06:07.307Z,3.18
2018-03-24T07:08:34.792Z,3.22
2018-03-24T07:11:02.258Z,3.27
2018-03-24T07:13:29.797Z,3.37
2018-03-24T07:15:57.265Z,3.31
2018-03-24T07:18:24.758Z,3.46
2018-03-24T07:20:52.214Z,3.46
2018-03-24T07:23:19.679Z,3.48
2018-03-24T07:25:47.158Z,3.52
2018-03-24T07:28:14.623Z,3.59
2018-03-24T07:30:42.120Z,3.49
2018-03-24T07:33:09.581Z,3.37
2018-03-24T07:35:37.079Z,3.46
2018-03-24T07:38:04.581Z,3.55
2018-03-24T07:40:32.035Z,3.55
2018-03-24T07:42:59.510Z,3.68
2018-03-24T07:45:26.974Z,3.84
2018-03-24T07:47:54.503Z,3.85
2018-03-24T07:50:21.967Z,3.71
2018-03-24T07:52:49.425Z,3.66
2018-03-24T07:55:16.926Z,3.69
2018-03-24T07:57:44.448Z,3.73
2018-03-24T08:00:11.955Z,3.87
2018-03-24T08:02:39.507Z,3.98
2018-03-24T08:05:07.005Z,4.15
2018-03-24T08:07:34.475Z,4.26
2018-03-24T08:10:02.043Z,4.31
2018-03-24T08:12:29.529Z,4.33
2018-03-24T08:14:57.054Z,4.25
2018-03-24T08:17:24.521Z,4.33
2018-03-24T08:19:51.989Z,4.21
2018-03-24T08:22:19.438Z,4.03
2018-03-24T08:24:46.924Z,3.98
2018-03-24T08:27:14.388Z,4.10
2018-03-24T08:29:41.854Z,4.16
2018-03-24T08:32:09.357Z,4.29
2018-03-24T08:34:36.914Z,4.34
2018-03-24T08:37:04.376Z,4.41
2018-03-24T08:39:31.846Z,4.31
2018-03-24T08:41:59.331Z,4.32
2018-03-24T08:44:26.798Z,4.32
2018-03-24T08:46:54.282Z,4.50
2018-03-24T08:49:21.755Z,4.67
2018-03-24T08:51:49.237Z,4.80
2018-03-24T08:54:16.710Z,4.92
2018-03-24T08:56:44.175Z,4.58
2018-03-24T08:59:11.698Z,4.68
2018-03-24T09:01:39.167Z,4.87
2018-03-24T09:04:06.642Z,5.01
2018-03-24T09:06:34.116Z,5.00
2018-03-24T09:09:01.652Z,5.08
2018-03-24T09:11:29.186Z,5.28
2018-03-24T09:13:56.656Z,5.15
2018-03-24T09:16:24.122Z,5.19
2018-03-24T09:18:51.612Z,5.25
2018-03-24T09:21:19.088Z,5.09
2018-03-24T09:23:46.551Z,5.27
2018-03-24T09:26:14.035Z,5.34
2018-03-24T09:28:41.502Z,5.38
2018-03-24T09:31:08.968Z,5.44
2018-03-24T09:33:36.474Z,5.43
2018-03-24T09:36:03.947Z,5.26
2018-03-24T09:38:31.423Z,5.40
2018-03-24T09:40:58.888Z,5.73
2018-03-24T09:43:26.463Z,6.09
2018-03-24T09:45:53.954Z,6.33
2018-03-24T09:48:21.406Z,6.48
2018-03-24T09:50:48.866Z,6.40
2018-03-24T09:53:16.356Z,6.55
2018-03-24T09:55:43.872Z,6.57
2018-03-24T09:58:11.343Z,6.46
2018-03-24T10:00:38.818Z,6.49
2018-03-24T10:03:06.287Z,6.53
2018-03-24T10:05:33.811Z,6.29
2018-03-24T10:08:01.322Z,5.71
2018-03-24T10:10:28.779Z,5.73
2018-03-24T10:12:56.282Z,5.73
2018-03-24T10:15:23.758Z,5.61
2018-03-24T10:17:51.227Z,5.52
2018-03-24T10:20:18.714Z,5.51
2018-03-24T10:23:06.077Z,5.47
2018-03-24T10:25:33.568Z,5.71
2018-03-24T10:28:01.087Z,5.93
2018-03-24T10:30:28.558Z,6.10
2018-03-24T10:32:56.037Z,5.96
2018-03-24T10:35:23.581Z,5.99
2018-03-24T10:37:56.690Z,6.05
2018-03-24T10:40:24.285Z,5.91
2018-03-24T10:42:57.450Z,6.03
2018-03-24T10:45:24.943Z,5.99
2018-03-24T10:47:52.470Z,6.25
2018-03-24T10:50:19.953Z,6.45
2018-03-24T10:52:47.451Z,6.91
2018-03-24T10:55:14.917Z,6.82
2018-03-24T10:57:42.382Z,6.53
2018-03-24T11:00:09.894Z,6.38
2018-03-24T11:02:37.381Z,6.56
2018-03-24T11:05:04.858Z,6.97
2018-03-24T11:07:32.351Z,6.71
2018-03-24T11:09:59.818Z,6.88
2018-03-24T11:12:27.283Z,6.75
2018-03-24T11:14:54.789Z,6.41
2018-03-24T11:17:22.256Z,6.35
2018-03-24T11:19:49.735Z,6.41
2018-03-24T11:22:17.342Z,6.35
2018-03-24T11:24:44.871Z,6.67
2018-03-24T11:27:12.334Z,6.80
2018-03-24T11:29:39.827Z,6.80
2018-03-24T11:32:07.323Z,7.09
2018-03-24T11:34:34.806Z,6.87
2018-03-24T11:37:02.303Z,7.00
2018-03-24T11:39:29.798Z,6.99
2018-03-24T11:41:57.295Z,6.89
2018-03-24T11:44:24.754Z,6.72
2018-03-24T11:46:52.223Z,6.90
2018-03-24T11:49:19.704Z,7.13
2018-03-24T11:51:47.162Z,7.32
2018-03-24T11:54:14.640Z,7.50
2018-03-24T11:56:42.131Z,7.63
2018-03-24T11:59:09.599Z,7.79
2018-03-24T12:01:37.055Z,7.56
2018-03-24T12:04:04.551Z,7.50
2018-03-24T12:06:32.016Z,7.52
2018-03-24T12:08:59.593Z,7.60
2018-03-24T12:11:27.090Z,7.71
2018-03-24T12:13:54.571Z,7.60
2018-03-24T12:16:22.061Z,7.38
2018-03-24T12:18:49.505Z,7.47
2018-03-24T12:21:17.014Z,7.13
2018-03-24T12:23:44.513Z,6.95
2018-03-24T12:26:11.974Z,7.05
2018-03-24T12:28:39.442Z,7.21
2018-03-24T12:31:06.917Z,7.56
2018-03-24T12:33:34.387Z,7.89
2018-03-24T12:36:01.874Z,7.88
2018-03-24T12:38:29.350Z,8.21
2018-03-24T12:40:56.873Z,8.76
2018-03-24T12:43:24.391Z,9.04
2018-03-24T12:45:51.848Z,9.28
2018-03-24T12:48:19.327Z,9.01
2018-03-24T12:50:46.969Z,8.14
2018-03-24T12:53:14.450Z,8.37
2018-03-24T12:55:41.999Z,8.41
2018-03-24T12:58:09.461Z,8.26
2018-03-24T13:00:36.945Z,7.78
2018-03-24T13:03:04.443Z,7.24
2018-03-24T13:05:31.908Z,7.36
2018-03-24T13:07:59.378Z,7.02
2018-03-24T13:10:26.893Z,7.06
2018-03-24T13:12:54.427Z,7.15
2018-03-24T13:15:21.948Z,7.07
2018-03-24T13:17:49.406Z,7.13
2018-03-24T13:20:16.870Z,7.39
2018-03-24T13:22:44.373Z,7.75
2018-03-24T13:25:11.905Z,8.05
2018-03-24T13:27:39.432Z,8.29
2018-03-24T13:30:06.902Z,8.13
2018-03-24T13:32:34.399Z,8.11
2018-03-24T13:35:01.954Z,8.35
2018-03-24T13:37:29.491Z,8.64
2018-03-24T13:39:56.959Z,8.59
2018-03-24T13:42:24.555Z,8.79
2018-03-24T13:44:52.029Z,9.08
2018-03-24T13:47:19.551Z,9.05
2018-03-24T13:49:47.095Z,8.45
2018-03-24T13:52:14.556Z,8.10
2018-03-24T13:54:42.036Z,8.47
2018-03-24T13:57:09.522Z,8.47
2018-03-24T13:59:36.988Z,7.98
2018-03-24T14:02:04.478Z,7.71
2018-03-24T14:04:32.025Z,7.77
2018-03-24T14:06:59.530Z,7.69
2018-03-24T14:09:27.126Z,7.82
2018-03-24T14:11:54.627Z,7.85
2018-03-24T14:14:22.138Z,7.90
2018-03-24T14:16:49.594Z,7.76
2018-03-24T14:19:17.117Z,7.79
2018-03-24T14:21:44.597Z,7.90
2018-03-24T14:24:12.077Z,7.64
2018-03-24T14:26:39.565Z,7.53
2018-03-24T14:29:07.111Z,7.41
2018-03-24T14:31:34.602Z,7.29
2018-03-24T14:34:02.081Z,7.33
2018-03-24T14:36:29.543Z,7.40
2018-03-24T14:38:57.013Z,7.41
2018-03-24T14:41:24.600Z,7.13
2018-03-24T14:43:52.176Z,6.96
2018-03-24T14:46:19.642Z,6.90
2018-03-24T14:48:47.250Z,7.03
2018-03-24T14:51:14.712Z,7.21
2018-03-24T14:53:42.175Z,7.18
2018-03-24T14:56:09.775Z,7.31
2018-03-24T14:58:37.263Z,7.53
2018-03-24T15:01:04.726Z,7.66
2018-03-24T15:03:32.184Z,7.63
2018-03-24T15:05:59.674Z,7.73
2018-03-24T15:08:27.288Z,7.97
2018-03-24T15:10:54.750Z,7.93
2018-03-24T15:13:22.257Z,7.86
2018-03-24T15:15:49.723Z,7.59
2018-03-24T15:18:17.318Z,7.40
2018-03-24T15:20:44.807Z,7.28
2018-03-24T15:23:12.386Z,7.27
2018-03-24T15:25:39.931Z,7.21
2018-03-24T15:28:07.413Z,7.34
2018-03-24T15:30:46.798Z,7.38
2018-03-24T15:33:26.144Z,7.52
2018-03-24T15:36:05.646Z,7.66
2018-03-24T15:38:33.231Z,7.55
2018-03-24T15:41:00.888Z,7.48
2018-03-24T15:43:28.370Z,7.35
2018-03-24T15:45:55.862Z,7.37
2018-03-24T15:48:23.421Z,7.35
2018-03-24T15:50:50.875Z,7.30
2018-03-24T15:53:18.349Z,7.42
2018-03-24T15:55:45.839Z,7.56
2018-03-24T15:58:13.366Z,7.74
2018-03-24T16:00:40.825Z,7.85
2018-03-24T16:03:08.301Z,7.68
2018-03-24T16:05:35.771Z,7.51
2018-03-24T16:08:03.263Z,7.56
2018-03-24T16:10:30.737Z,8.21
2018-03-24T16:12:58.210Z,9.09
2018-03-24T16:15:25.709Z,9.57
2018-03-24T16:17:53.179Z,9.75
2018-03-24T16:20:20.635Z,9.75
2018-03-24T16:22:48.209Z,9.69
2018-03-24T16:25:15.709Z,9.50
2018-03-24T16:27:43.205Z,9.41
2018-03-24T16:30:10.707Z,9.31
2018-03-24T16:32:38.969Z,9.12
2018-03-24T16:35:06.426Z,8.88
2018-03-24T16:37:33.986Z,8.72
2018-03-24T16:40:01.467Z,8.43
2018-03-24T16:42:28.970Z,8.20
2018-03-24T16:44:56.474Z,8.14
2018-03-24T16:47:24.140Z,7.83
2018-03-24T16:49:51.613Z,7.43
2018-03-24T16:52:19.084Z,7.27
2018-03-24T16:54:46.589Z,7.03
2018-03-24T16:57:14.053Z,6.91
2018-03-24T16:59:41.539Z,6.79
2018-03-24T17:02:09.037Z,6.76
2018-03-24T17:04:36.498Z,6.71
2018-03-24T17:07:03.992Z,6.67
2018-03-24T17:09:31.492Z,6.60
2018-03-24T17:11:58.954Z,6.53
2018-03-24T17:14:26.452Z,6.44
2018-03-24T17:16:53.943Z,6.36
2018-03-24T17:19:21.424Z,6.32
2018-03-24T17:21:48.912Z,6.26
2018-03-24T17:24:16.422Z,6.24
2018-03-24T17:26:43.892Z,6.22
2018-03-24T17:29:11.435Z,6.16
2018-03-24T17:31:38.974Z,6.12
2018-03-24T17:34:06.485Z,6.07
2018-03-24T17:36:33.958Z,6.02
2018-03-24T17:39:01.428Z,5.97
2018-03-24T17:41:28.959Z,5.88
2018-03-24T17:43:56.496Z,5.85
2018-03-24T17:46:24.012Z,5.81
2018-03-24T17:48:51.532Z,5.77
2018-03-24T17:51:18.967Z,5.74
2018-03-24T17:53:46.437Z,5.70
2018-03-24T17:56:13.902Z,5.65
2018-03-24T17:58:41.393Z,5.60
2018-03-24T18:01:08.878Z,5.57
2018-03-24T18:03:36.354Z,5.56
2018-03-24T18:06:03.830Z,5.52
2018-03-24T18:08:31.327Z,5.50
2018-03-24T18:10:58.792Z,5.48
2018-03-24T18:13:26.270Z,5.45
2018-03-24T18:15:53.758Z,5.40
2018-03-24T18:18:21.323Z,5.34
2018-03-24T18:20:48.867Z,5.29
2018-03-24T18:23:16.364Z,5.26
2018-03-24T18:25:43.894Z,5.21
2018-03-24T18:28:11.380Z,5.13
2018-03-24T18:30:38.838Z,5.06
2018-03-24T18:33:06.362Z,5.02
2018-03-24T18:35:33.855Z,4.98
2018-03-24T18:38:01.394Z,4.95
2018-03-24T18:40:28.868Z,4.93
2018-03-24T18:42:56.399Z,4.89
2018-03-24T18:45:23.861Z,4.88
2018-03-24T18:47:51.350Z,4.86
2018-03-24T18:50:18.874Z,4.85
2018-03-24T18:52:46.352Z,4.82
2018-03-24T18:55:13.968Z,4.81
2018-03-24T18:57:41.423Z,4.74
2018-03-24T19:00:09.015Z,4.69
2018-03-24T19:02:36.473Z,4.65
2018-03-24T19:05:03.947Z,4.61
2018-03-24T19:07:31.433Z,4.58
2018-03-24T19:09:58.910Z,4.58
2018-03-24T19:12:26.407Z,4.54
2018-03-24T19:14:53.898Z,4.48
2018-03-24T19:17:21.375Z,4.44
2018-03-24T19:19:48.888Z,4.41
2018-03-24T19:22:16.352Z,4.37
2018-03-24T19:24:43.831Z,4.34
2018-03-24T19:27:11.294Z,4.34
2018-03-24T19:29:38.771Z,4.32
2018-03-24T19:32:06.274Z,4.33
2018-03-24T19:34:33.752Z,4.30
2018-03-24T19:37:01.221Z,4.27
2018-03-24T19:39:28.713Z,4.25
2018-03-24T19:41:56.186Z,4.24
2018-03-24T19:44:23.680Z,4.20
2018-03-24T19:46:51.250Z,4.17
2018-03-24T19:49:18.722Z,4.14
2018-03-24T19:51:46.182Z,4.12
2018-03-24T19:54:13.667Z,4.10
2018-03-24T19:56:41.121Z,4.05
2018-03-24T19:59:08.592Z,4.03
2018-03-24T20:01:36.066Z,3.97
2018-03-24T20:04:03.599Z,3.91
2018-03-24T20:06:31.936Z,3.86
2018-03-24T20:08:59.405Z,3.87
2018-03-24T20:11:26.928Z,3.86
2018-03-24T20:13:54.387Z,3.84
2018-03-24T20:16:21.850Z,3.82
2018-03-24T20:18:49.354Z,3.77
2018-03-24T20:21:16.839Z,3.73
2018-03-24T20:23:44.339Z,3.69
2018-03-24T20:26:11.839Z,3.67
2018-03-24T20:28:39.371Z,3.65
2018-03-24T20:31:06.831Z,3.59
2018-03-24T20:33:34.351Z,3.56
2018-03-24T20:36:01.812Z,3.57
2018-03-24T20:38:29.280Z,3.54
2018-03-24T20:40:56.779Z,3.52
2018-03-24T20:43:24.255Z,3.51
2018-03-24T20:45:51.756Z,3.47
2018-03-24T20:48:19.287Z,3.45
2018-03-24T20:50:46.767Z,3.46
2018-03-24T20:53:14.226Z,3.46
2018-03-24T20:55:41.699Z,3.43
2018-03-24T20:58:09.159Z,3.42
2018-03-24T21:00:36.667Z,3.41
2018-03-24T21:03:04.157Z,3.39
2018-03-24T21:05:31.643Z,3.39
2018-03-24T21:07:59.127Z,3.36
2018-03-24T21:10:27.098Z,3.36
2018-03-24T21:12:54.571Z,3.34
2018-03-24T21:15:22.030Z,3.34
2018-03-24T21:17:49.524Z,3.33
2018-03-24T21:20:17.041Z,3.29
2018-03-24T21:22:44.565Z,3.27
2018-03-24T21:25:12.034Z,3.24
2018-03-24T21:27:39.518Z,3.19
2018-03-24T21:30:07.008Z,3.17
2018-03-24T21:32:34.481Z,3.16
2018-03-24T21:35:01.958Z,3.13
2018-03-24T21:37:29.567Z,3.11
2018-03-24T21:39:57.065Z,3.09
2018-03-24T21:42:24.588Z,3.06
2018-03-24T21:44:52.068Z,3.03
2018-03-24T21:47:19.601Z,3.03
2018-03-24T21:49:47.143Z,3.01
2018-03-24T21:52:14.696Z,2.99
2018-03-24T21:54:42.291Z,3.00
2018-03-24T21:57:09.894Z,2.93
2018-03-24T21:59:37.379Z,2.97
2018-03-24T22:02:04.878Z,2.96
2018-03-24T22:04:32.380Z,2.91
2018-03-24T22:06:59.869Z,2.90
2018-03-24T22:09:27.342Z,2.92
2018-03-24T22:11:54.873Z,2.90
2018-03-24T22:14:22.436Z,2.87
2018-03-24T22:16:49.925Z,2.81
2018-03-24T22:19:17.390Z,2.79
2018-03-24T22:21:44.863Z,2.76
2018-03-24T22:24:12.326Z,2.72
2018-03-24T22:26:39.824Z,2.71
2018-03-24T22:29:07.542Z,2.66
2018-03-24T22:31:35.013Z,2.56
2018-03-24T22:34:02.505Z,2.51
2018-03-24T22:36:30.090Z,2.49
2018-03-24T22:38:57.560Z,2.46
2018-03-24T22:41:25.091Z,2.42
2018-03-24T22:43:52.559Z,2.41
2018-03-24T22:46:20.039Z,2.37
2018-03-24T22:48:47.555Z,2.34
2018-03-24T22:51:15.018Z,2.32
2018-03-24T22:53:42.546Z,2.27
2018-03-24T22:56:10.019Z,2.29
2018-03-24T22:58:37.513Z,2.23
2018-03-24T23:01:05.022Z,2.18
2018-03-24T23:03:32.479Z,2.16
2018-03-24T23:05:59.938Z,2.15
2018-03-24T23:08:27.427Z,2.12
2018-03-24T23:10:54.887Z,2.09
2018-03-24T23:13:22.356Z,2.04
2018-03-24T23:15:49.847Z,2.04
2018-03-24T23:18:17.327Z,2.00
2018-03-24T23:20:44.803Z,1.94
2018-03-24T23:23:12.392Z,1.88
2018-03-24T23:25:39.866Z,1.83
2018-03-24T23:28:07.336Z,1.81
2018-03-24T23:30:34.816Z,1.89
2018-03-24T23:33:02.280Z,1.85
2018-03-24T23:35:29.740Z,1.79
2018-03-24T23:37:57.226Z,1.76
2018-03-24T23:40:24.681Z,1.74
2018-03-24T23:42:52.150Z,1.77
2018-03-24T23:45:19.645Z,1.74
2018-03-24T23:47:47.093Z,1.67
2018-03-24T23:50:14.566Z,1.63
2018-03-24T23:52:42.036Z,1.62
2018-03-24T23:55:09.591Z,1.56
2018-03-24T23:57:37.058Z,1.56
